createdAt,value
2018-12-01T00:04:01.335Z,100692.39
2018-12-01T00:08:20.259Z,100687.17
2018-12-01T00:12:24.214Z,100690.97
2018-12-01T00:16:28.190Z,100692.70
2018-12-01T00:20:35.097Z,100690.15
2018-12-01T00:24:39.090Z,100679.05
2018-12-01T00:28:43.137Z,100673.45
2018-12-01T00:32:48.395Z,100673.20
2018-12-01T00:36:52.840Z,100665.34
2018-12-01T00:40:56.845Z,100665.80
2018-12-01T00:45:00.846Z,100676.61
2018-12-01T00:49:04.848Z,100669.66
2018-12-01T00:53:08.941Z,100663.70
2018-12-01T00:57:12.887Z,100668.63
2018-12-01T01:01:16.872Z,100670.66
2018-12-01T01:05:21.946Z,100676.64
2018-12-01T01:09:25.987Z,100678.13
2018-12-01T01:13:30.062Z,100680.19
2018-12-01T01:17:34.039Z,100669.62
2018-12-01T01:21:38.173Z,100674.61
2018-12-01T01:25:42.206Z,100682.93
2018-12-01T01:29:46.231Z,100688.94
2018-12-01T01:33:50.166Z,100680.91
2018-12-01T01:37:54.157Z,100683.39
2018-12-01T01:41:58.251Z,100688.83
2018-12-01T01:46:02.232Z,100703.44
2018-12-01T01:50:08.452Z,100709.59
2018-12-01T01:54:12.479Z,100691.77
2018-12-01T01:58:16.542Z,100687.65
2018-12-01T02:02:20.491Z,100687.38
2018-12-01T02:06:24.489Z,100695.85
2018-12-01T02:10:28.455Z,100695.33
2018-12-01T02:14:32.535Z,100700.50
2018-12-01T02:18:36.523Z,100686.12
2018-12-01T02:22:40.571Z,100686.65
2018-12-01T02:26:44.579Z,100680.98
2018-12-01T02:30:48.526Z,100676.93
2018-12-01T02:34:52.618Z,100673.42
2018-12-01T02:38:56.645Z,100675.47
2018-12-01T02:43:00.683Z,100664.98
2018-12-01T02:47:09.778Z,100658.83
2018-12-01T02:51:13.827Z,100653.44
2018-12-01T02:55:17.762Z,100654.05
2018-12-01T02:59:21.737Z,100658.52
2018-12-01T03:03:25.679Z,100666.77
2018-12-01T03:07:29.702Z,100665.84
2018-12-01T03:11:33.760Z,100657.37
2018-12-01T03:15:37.743Z,100660.08
2018-12-01T03:19:41.773Z,100650.70
2018-12-01T03:23:45.804Z,100655.74
2018-12-01T03:27:50.525Z,100663.89
2018-12-01T03:31:54.467Z,100657.81
2018-12-01T03:35:58.402Z,100671.25
2018-12-01T03:40:02.438Z,100679.12
2018-12-01T03:44:06.494Z,100682.14
2018-12-01T03:48:10.456Z,100685.16
2018-12-01T03:52:14.420Z,100687.21
2018-12-01T03:56:18.353Z,100706.83
2018-12-01T04:00:30.154Z,100695.48
2018-12-01T04:04:34.145Z,100699.41
2018-12-01T04:08:38.146Z,100703.95
2018-12-01T04:12:42.096Z,100696.61
2018-12-01T04:16:46.111Z,100691.51
2018-12-01T04:20:50.148Z,100688.77
2018-12-01T04:24:54.150Z,100692.38
2018-12-01T04:28:58.103Z,100703.97
2018-12-01T04:33:02.117Z,100706.60
2018-12-01T04:37:06.121Z,100703.59
2018-12-01T04:41:10.138Z,100698.91
2018-12-01T04:45:14.193Z,100710.19
2018-12-01T04:49:18.180Z,100703.70
2018-12-01T04:53:22.163Z,100723.56
2018-12-01T04:57:26.161Z,100724.19
2018-12-01T05:01:31.094Z,100718.95
2018-12-01T05:05:35.038Z,100713.67
2018-12-01T05:09:39.088Z,100714.45
2018-12-01T05:13:43.042Z,100714.30
2018-12-01T05:17:47.498Z,100716.95
2018-12-01T05:21:51.441Z,100735.22
2018-12-01T05:25:56.423Z,100726.17
2018-12-01T05:30:00.441Z,100729.19
2018-12-01T05:34:04.455Z,100728.73
2018-12-01T05:38:08.400Z,100728.93
2018-12-01T05:42:12.406Z,100727.72
2018-12-01T05:46:16.362Z,100718.32
2018-12-01T05:50:23.015Z,100720.48
2018-12-01T05:54:26.973Z,100720.84
2018-12-01T05:58:30.945Z,100704.06
2018-12-01T06:02:34.967Z,100698.01
2018-12-01T06:06:38.925Z,100696.50
2018-12-01T06:10:42.902Z,100693.67
2018-12-01T06:14:46.927Z,100693.34
2018-12-01T06:18:51.980Z,100701.13
2018-12-01T06:22:56.006Z,100696.88
2018-12-01T06:27:00.040Z,100693.95
2018-12-01T06:31:04.025Z,100690.93
2018-12-01T06:35:08.082Z,100692.30
2018-12-01T06:39:12.210Z,100682.25
2018-12-01T06:43:16.181Z,100683.47
2018-12-01T06:47:20.131Z,100673.18
2018-12-01T06:51:24.171Z,100687.59
2018-12-01T06:55:28.121Z,100681.43
2018-12-01T06:59:32.113Z,100678.32
2018-12-01T07:03:36.115Z,100677.23
2018-12-01T07:07:40.084Z,100665.52
2018-12-01T07:11:44.048Z,100666.00
2018-12-01T07:15:48.184Z,100660.11
2018-12-01T07:19:52.203Z,100670.06
2018-12-01T07:23:56.258Z,100682.91
2018-12-01T07:28:00.247Z,100680.74
2018-12-01T07:32:04.367Z,100680.15
2018-12-01T07:36:08.295Z,100671.56
2018-12-01T07:40:14.015Z,100671.83
2018-12-01T07:44:18.078Z,100671.44
2018-12-01T07:48:22.079Z,100674.97
2018-12-01T07:52:26.071Z,100682.25
2018-12-01T07:56:30.012Z,100689.26
2018-12-01T08:00:36.087Z,100700.49
2018-12-01T08:04:40.164Z,100701.48
2018-12-01T08:08:44.107Z,100705.14
2018-12-01T08:12:48.095Z,100698.88
2018-12-01T08:16:52.176Z,100702.59
2018-12-01T08:20:56.139Z,100697.55
2018-12-01T08:25:00.447Z,100699.70
2018-12-01T08:29:04.628Z,100695.73
2018-12-01T08:33:08.616Z,100690.16
2018-12-01T08:37:14.042Z,100685.00
2018-12-01T08:41:18.056Z,100691.16
2018-12-01T08:45:22.376Z,100691.39
2018-12-01T08:49:26.353Z,100691.14
2018-12-01T08:53:32.481Z,100688.44
2018-12-01T08:57:36.530Z,100686.73
2018-12-01T09:01:40.581Z,100689.38
2018-12-01T09:05:44.768Z,100718.13
2018-12-01T09:09:48.856Z,100712.86
2018-12-01T09:13:53.468Z,100710.55
2018-12-01T09:17:57.579Z,100695.32
2018-12-01T09:22:01.630Z,100701.58
2018-12-01T09:26:20.008Z,100701.41
2018-12-01T09:50:26.167Z,100677.83
2018-12-01T09:54:31.917Z,100691.06
2018-12-01T09:58:37.161Z,100698.27
2018-12-01T10:02:41.570Z,100693.20
2018-12-01T10:06:45.607Z,100681.55
2018-12-01T10:11:04.228Z,100675.39
2018-12-01T10:15:11.112Z,100677.06
2018-12-01T10:19:15.106Z,100672.81
2018-12-01T10:23:19.202Z,100673.33
2018-12-01T10:27:23.159Z,100652.69
2018-12-01T10:31:27.577Z,100661.27
2018-12-01T10:35:31.306Z,100648.40
2018-12-01T10:39:35.198Z,100647.59
2018-12-01T10:43:39.348Z,100639.00
2018-12-01T10:47:43.924Z,100630.56
2018-12-01T10:51:48.097Z,100616.55
2018-12-01T10:55:52.279Z,100626.15
2018-12-01T10:59:56.862Z,100614.50
2018-12-01T11:04:06.102Z,100618.28
2018-12-01T11:08:11.346Z,100618.54
2018-12-01T11:12:15.463Z,100614.78
2018-12-01T11:16:19.551Z,100596.80
2018-12-01T11:20:23.497Z,100595.19
2018-12-01T11:24:28.062Z,100583.89
2018-12-01T11:28:32.203Z,100561.27
2018-12-01T11:32:36.236Z,100560.50
2018-12-01T11:36:40.379Z,100555.30
2018-12-01T11:40:45.477Z,100554.86
2018-12-01T11:44:49.554Z,100550.89
2018-12-01T11:48:53.659Z,100539.30
2018-12-01T11:52:57.731Z,100539.91
2018-12-01T11:57:02.336Z,100538.94
2018-12-01T12:01:06.519Z,100531.99
2018-12-01T12:05:11.659Z,100526.05
2018-12-01T12:09:15.764Z,100521.25
2018-12-01T12:13:22.286Z,100516.66
2018-12-01T12:17:26.383Z,100516.97
2018-12-01T12:21:30.482Z,100513.02
2018-12-01T12:25:34.468Z,100506.84
2018-12-01T12:29:38.561Z,100511.43
2018-12-01T12:33:43.146Z,100500.88
2018-12-01T12:37:47.359Z,100498.16
2018-12-01T12:41:51.424Z,100500.70
2018-12-01T12:45:55.427Z,100486.01
2018-12-01T12:49:59.470Z,100488.99
2018-12-01T12:54:03.697Z,100493.70
2018-12-01T12:58:07.678Z,100496.61
2018-12-01T13:02:11.843Z,100479.67
2018-12-01T13:06:15.915Z,100475.16
2018-12-01T13:10:21.003Z,100470.73
2018-12-01T13:14:25.191Z,100456.80
2018-12-01T13:18:29.193Z,100463.07
2018-12-01T13:22:33.200Z,100448.20
2018-12-01T13:26:37.221Z,100445.66
2018-12-01T13:30:57.179Z,100445.19
2018-12-01T13:35:01.191Z,100449.11
2018-12-01T13:39:08.299Z,100438.19
2018-12-01T13:43:12.275Z,100446.00
2018-12-01T13:47:16.344Z,100435.45
2018-12-01T13:51:26.602Z,100436.30
2018-12-01T13:55:32.042Z,100429.43
2018-12-01T13:59:36.114Z,100438.74
2018-12-01T14:03:40.081Z,100426.89
2018-12-01T14:07:44.113Z,100436.02
2018-12-01T14:11:48.089Z,100434.83
2018-12-01T14:15:52.029Z,100428.29
2018-12-01T14:19:55.953Z,100427.20
2018-12-01T14:23:59.886Z,100428.77
2018-12-01T14:28:05.631Z,100418.74
2018-12-01T14:32:09.688Z,100422.20
2018-12-01T14:36:13.709Z,100439.86
2018-12-01T14:40:17.824Z,100431.70
2018-12-01T14:44:21.763Z,100423.89
2018-12-01T14:48:25.841Z,100420.36
2018-12-01T14:52:29.835Z,100408.62
2018-12-01T14:56:33.815Z,100403.70
2018-12-01T15:00:38.087Z,100407.75
2018-12-01T15:04:42.059Z,100401.27
2018-12-01T15:08:46.259Z,100390.23
2018-12-01T15:12:50.424Z,100380.23
2018-12-01T15:16:54.812Z,100372.70
2018-12-01T15:21:01.074Z,100354.84
2018-12-01T15:25:08.030Z,100349.68
2018-12-01T15:29:12.068Z,100338.16
2018-12-01T15:33:16.680Z,100339.47
2018-12-01T15:37:21.108Z,100337.80
2018-12-01T15:41:25.387Z,100329.77
2018-12-01T15:45:29.373Z,100305.59
2018-12-01T15:49:33.392Z,100299.66
2018-12-01T15:53:37.407Z,100289.50
2018-12-01T15:57:41.339Z,100291.75
2018-12-01T16:01:45.318Z,100288.96
2018-12-01T16:05:49.315Z,100275.16
2018-12-01T16:09:53.311Z,100271.48
2018-12-01T16:13:57.241Z,100263.98
2018-12-01T16:18:01.246Z,100254.05
2018-12-01T16:22:05.560Z,100246.08
2018-12-01T16:26:09.494Z,100242.11
2018-12-01T16:30:24.452Z,100242.11
2018-12-01T16:34:29.861Z,100231.73
2018-12-01T16:38:35.966Z,100232.19
2018-12-01T16:42:40.648Z,100217.80
2018-12-01T16:46:44.740Z,100198.27
2018-12-01T16:50:48.782Z,100202.42
2018-12-01T16:54:52.775Z,100191.06
2018-12-01T16:58:56.784Z,100184.01
2018-12-01T17:03:00.758Z,100176.15
2018-12-01T17:07:04.830Z,100167.54
2018-12-01T17:11:09.462Z,100159.73
2018-12-01T17:15:16.507Z,100153.05
2018-12-01T17:19:20.484Z,100137.53
2018-12-01T17:23:24.538Z,100140.73
2018-12-01T17:27:28.550Z,100119.71
2018-12-01T17:31:32.571Z,100108.48
2018-12-01T17:35:36.734Z,100102.48
2018-12-01T17:39:40.676Z,100106.39
2018-12-01T17:43:48.558Z,100094.77
2018-12-01T17:47:52.503Z,100092.96
2018-12-01T17:51:56.564Z,100094.40
2018-12-01T17:56:00.535Z,100089.02
2018-12-01T18:00:09.134Z,100078.12
2018-12-01T18:04:13.121Z,100086.09
2018-12-01T18:08:20.571Z,100072.10
2018-12-01T18:12:24.501Z,100059.60
2018-12-01T18:16:28.549Z,100060.84
2018-12-01T18:20:32.478Z,100055.19
2018-12-01T18:24:36.514Z,100046.81
2018-12-01T18:28:43.860Z,100039.94
2018-12-01T18:32:48.476Z,100038.05
2018-12-01T18:36:52.607Z,100032.92
2018-12-01T18:40:56.731Z,100030.77
2018-12-01T18:45:01.632Z,100021.14
2018-12-01T18:49:05.075Z,100014.55
2018-12-01T18:53:10.820Z,100011.98
2018-12-01T18:57:15.317Z,100016.75
2018-12-01T19:01:19.363Z,100008.92
2018-12-01T19:05:23.619Z,100001.70
2018-12-01T19:09:27.662Z,99996.49
2018-12-01T19:13:31.976Z,99995.22
2018-12-01T19:17:36.355Z,99999.87
2018-12-01T19:21:40.588Z,99988.20
2018-12-01T19:25:46.104Z,99987.00
2018-12-01T19:29:50.212Z,99979.45
2018-12-01T19:33:54.151Z,99986.34
2018-12-01T19:37:58.134Z,99985.34
2018-12-01T19:42:02.183Z,99976.74
2018-12-01T19:46:06.512Z,99967.36
2018-12-01T19:50:20.728Z,99956.77
2018-12-01T19:54:24.705Z,99950.72
2018-12-01T19:58:29.833Z,99941.80
2018-12-01T20:02:34.098Z,99953.08
2018-12-01T20:06:38.123Z,99947.98
2018-12-01T20:10:45.116Z,99937.55
2018-12-01T20:14:49.176Z,99939.48
2018-12-01T20:18:54.218Z,99934.21
2018-12-01T20:22:58.246Z,99928.68
2018-12-01T20:27:02.334Z,99936.95
2018-12-01T20:31:06.594Z,99916.74
2018-12-01T20:35:12.067Z,99923.91
2018-12-01T20:39:22.019Z,99914.55
2018-12-01T20:43:26.028Z,99916.60
2018-12-01T20:47:30.123Z,99903.09
2018-12-01T20:51:34.090Z,99902.95
2018-12-01T20:55:38.762Z,99899.03
2018-12-01T20:59:42.869Z,99888.95
2018-12-01T21:03:46.923Z,99870.72
2018-12-01T21:07:51.175Z,99865.08
2018-12-01T21:11:55.528Z,99869.07
2018-12-01T21:15:59.710Z,99863.87
2018-12-01T21:20:05.322Z,99846.41
2018-12-01T21:24:09.654Z,99855.74
2018-12-01T21:28:14.344Z,99836.45
2018-12-01T21:32:18.355Z,99826.60
2018-12-01T21:36:22.405Z,99826.16
2018-12-01T21:40:26.458Z,99832.52
2018-12-01T21:44:30.575Z,99838.09
2018-12-01T21:48:34.571Z,99828.38
2018-12-01T21:52:38.519Z,99831.89
2018-12-01T21:56:42.635Z,99830.54
2018-12-01T22:00:50.144Z,99829.98
2018-12-01T22:04:54.122Z,99826.77
2018-12-01T22:08:58.162Z,99818.25
2018-12-01T22:13:02.091Z,99822.52
2018-12-01T22:17:07.237Z,99811.38
2018-12-01T22:21:11.328Z,99806.95
2018-12-01T22:25:15.394Z,99799.80
2018-12-01T22:29:19.392Z,99798.11
2018-12-01T22:33:25.918Z,99800.12
2018-12-01T22:37:29.866Z,99786.58
2018-12-01T22:41:33.917Z,99795.84
2018-12-01T22:45:37.942Z,99796.59
2018-12-01T22:49:41.983Z,99788.37
2018-12-01T22:53:45.950Z,99787.25
2018-12-01T22:57:52.300Z,99783.58
2018-12-01T23:01:56.266Z,99790.08
2018-12-01T23:06:00.366Z,99778.58
2018-12-01T23:10:06.276Z,99786.31
2018-12-01T23:14:10.427Z,99767.84
2018-12-01T23:18:18.071Z,99760.22
2018-12-01T23:22:22.112Z,99763.24
2018-12-01T23:26:26.116Z,99756.03
2018-12-01T23:30:30.731Z,99758.42
2018-12-01T23:34:34.807Z,99743.69
2018-12-01T23:38:38.907Z,99744.15
2018-12-01T23:42:43.008Z,99749.91
2018-12-01T23:46:48.579Z,99739.23
2018-12-01T23:50:54.029Z,99734.33
2018-12-01T23:54:58.059Z,99732.77
2018-12-01T23:59:02.093Z,99732.77
